METAR AND TAF INFORMATION
METAR FOR LFSD
ADDS - METARS form results

(0253 UTC 03 February 2023)
Data provider http://aviationweather.gov/metar/data/
 
METAR text: LFSD 030230Z AUTO 17003KT 9999 OVC041 05/02 Q1035
Conditions at: LFSD (DIJON/LONGVIC(FA, FR) observed 0230 UTC 03 February 2023
Temperature: 5.0°C (41°F)
Dewpoint: 2.0°C (36°F) [RH = 81%]
Pressure (altimeter): 30.56 inches Hg (1035.0 mb)
Winds: from the S (170 degrees) at 3 MPH (3 knots; 1.5 m/s)
Visibility: 6 or more miles (10+ km)
Ceiling: 4100 feet AGL
Clouds: overcast cloud deck at 4100 feet AGL
Weather: no significant weather observed at this time

METAR text: LFSD 030200Z AUTO VRB02KT 9999 BKN040 OVC046 05/02 Q1035
Conditions at: LFSD (DIJON/LONGVIC(FA, FR) observed 0200 UTC 03 February 2023
Temperature: 5.0°C (41°F)
Dewpoint: 2.0°C (36°F) [RH = 81%]
Pressure (altimeter): 30.56 inches Hg (1035.0 mb)
Winds: variable direction winds at 2 MPH (2 knots; 1.0 m/s)
Visibility: 6 or more miles (10+ km)
Ceiling: 4000 feet AGL
Clouds: broken clouds at 4000 feet AGL
overcast cloud deck at 4600 feet AGL
Weather: no significant weather observed at this time

 AIRPORT MAP

 RUNWAY INFORMATION
Runway 02 Runway length 5905 ft Runway width 118 ft
Runway elevation 719 ft Runway displaced threshold 0 ft Runway heading 15
Runway 20 Runway length 5905 ft Runway width 118 ft
Runway elevation 728 ft Runway displaced threshold 0 ft Runway heading 195
Runway 18 Runway length 7874 ft Runway width 148 ft
Runway elevation 726 ft Runway displaced threshold 0 ft Runway heading 175
Runway 36 Runway length 7874 ft Runway width 148 ft
Runway elevation 710 ft Runway displaced threshold 0 ft Runway heading 355

 AIRPORT FREQUENCIES
Type A/D Name DIJON APP Frequency 142.45 MHZ
Type AFIS Name DIJON INFO Frequency 118.325 MHZ
Type GND Name DIJON GND Frequency 122.1 MHZ
Type TWR Name DIJON TWR Frequency 118.325 MHZ

 AIRPORT NEAR NAVIGATION AIDS
Type TACAN Name Dijon Frequency 113500 KHZ
Type VOR-DME Name Dijon Frequency 111450 KHZ



Powered by Virtual Airlines Manager [v2.6.2]